createdAt,value
2022-10-25T00:01:30.408Z,14.20
2022-10-25T00:03:57.521Z,14.20
2022-10-25T00:06:24.667Z,14.20
2022-10-25T00:08:51.433Z,14.20
2022-10-25T00:11:26.779Z,14.10
2022-10-25T00:13:55.825Z,14.10
2022-10-25T00:16:25.218Z,14.20
2022-10-25T00:18:52.107Z,14.20
2022-10-25T00:21:18.972Z,14.20
2022-10-25T00:23:46.431Z,14.10
2022-10-25T00:26:13.438Z,14.00
2022-10-25T00:28:40.757Z,14.00
2022-10-25T00:31:10.052Z,14.00
2022-10-25T00:33:38.565Z,13.90
2022-10-25T00:36:11.219Z,14.00
2022-10-25T00:38:37.863Z,14.00
2022-10-25T00:41:05.037Z,14.00
2022-10-25T00:44:16.725Z,14.00
2022-10-25T00:46:44.843Z,13.90
2022-10-25T00:49:18.672Z,13.90
2022-10-25T00:51:56.049Z,13.90
2022-10-25T00:54:28.403Z,13.90
2022-10-25T00:56:57.989Z,13.90
2022-10-25T00:59:26.647Z,13.90
2022-10-25T01:01:55.212Z,13.90
2022-10-25T01:04:28.733Z,13.80
2022-10-25T01:06:57.299Z,13.90
2022-10-25T01:09:26.546Z,13.80
2022-10-25T01:11:53.560Z,13.80
2022-10-25T01:14:20.626Z,13.80
2022-10-25T01:17:05.703Z,13.80
2022-10-25T01:19:51.102Z,13.80
2022-10-25T01:22:27.192Z,13.70
2022-10-25T01:25:20.945Z,13.70
2022-10-25T01:28:06.358Z,13.60
2022-10-25T01:30:51.588Z,13.60
2022-10-25T01:33:27.791Z,13.60
2022-10-25T01:36:11.619Z,13.60
2022-10-25T01:38:47.171Z,13.60
2022-10-25T01:41:40.114Z,13.60
2022-10-25T01:44:32.173Z,13.60
2022-10-25T01:47:04.072Z,13.60
2022-10-25T01:49:50.840Z,13.70
2022-10-25T01:52:22.787Z,13.70
2022-10-25T01:54:50.573Z,13.70
2022-10-25T01:57:39.195Z,13.60
2022-10-25T02:00:17.762Z,13.70
2022-10-25T02:02:47.795Z,13.70
2022-10-25T02:05:48.673Z,13.60
2022-10-25T02:08:28.892Z,13.60
2022-10-25T02:11:01.943Z,13.70
2022-10-25T02:13:40.615Z,13.70
2022-10-25T02:16:12.018Z,13.80
2022-10-25T02:18:43.352Z,13.80
2022-10-25T02:21:12.279Z,13.70
2022-10-25T02:23:40.292Z,13.70
2022-10-25T02:26:09.543Z,13.80
2022-10-25T02:28:39.813Z,13.80
2022-10-25T02:31:09.683Z,13.80
2022-10-25T02:33:37.171Z,13.80
2022-10-25T02:36:12.606Z,13.80
2022-10-25T02:38:40.070Z,13.80
2022-10-25T02:41:06.797Z,13.80
2022-10-25T02:43:33.515Z,13.70
2022-10-25T02:46:04.600Z,13.70
2022-10-25T02:48:31.187Z,13.80
2022-10-25T02:50:57.728Z,13.70
2022-10-25T02:53:24.285Z,13.70
2022-10-25T02:56:10.822Z,13.60
2022-10-25T02:58:39.810Z,13.80
2022-10-25T03:01:07.616Z,13.80
2022-10-25T03:03:34.411Z,13.80
2022-10-25T03:06:01.368Z,13.70
2022-10-25T03:10:55.580Z,13.60
2022-10-25T03:13:22.511Z,13.60
2022-10-25T03:15:49.084Z,13.50
2022-10-25T03:18:16.149Z,13.50
2022-10-25T03:20:43.775Z,13.40
2022-10-25T03:23:10.996Z,13.50
2022-10-25T03:25:37.673Z,13.40
2022-10-25T03:28:04.600Z,13.40
2022-10-25T03:30:31.708Z,13.40
2022-10-25T03:32:58.729Z,13.30
2022-10-25T03:35:26.656Z,13.20
2022-10-25T03:37:53.621Z,13.20
2022-10-25T03:40:20.869Z,13.20
2022-10-25T03:42:47.522Z,13.10
2022-10-25T03:45:14.103Z,13.10
2022-10-25T03:47:40.748Z,13.10
2022-10-25T03:50:08.356Z,13.10
2022-10-25T03:52:35.455Z,13.10
2022-10-25T03:55:02.128Z,13.10
2022-10-25T03:57:28.883Z,13.10
2022-10-25T03:59:55.453Z,13.10
2022-10-25T04:02:22.105Z,13.00
2022-10-25T04:04:48.655Z,13.00
2022-10-25T04:07:15.296Z,13.00
2022-10-25T04:09:42.041Z,12.90
2022-10-25T04:12:08.721Z,12.90
2022-10-25T04:14:35.245Z,12.90
2022-10-25T04:17:01.870Z,12.90
2022-10-25T04:19:28.535Z,12.90
2022-10-25T04:21:55.266Z,12.80
2022-10-25T04:24:22.725Z,12.80
2022-10-25T04:26:49.371Z,12.80
2022-10-25T04:29:17.301Z,12.70
2022-10-25T04:31:44.004Z,12.70
2022-10-25T04:34:10.726Z,12.70
2022-10-25T04:36:38.933Z,12.70
2022-10-25T04:39:05.797Z,12.70
2022-10-25T04:41:32.357Z,12.70
2022-10-25T04:43:58.955Z,12.70
2022-10-25T04:46:25.499Z,12.70
2022-10-25T04:48:52.103Z,12.70
2022-10-25T04:51:19.209Z,12.70
2022-10-25T04:53:45.763Z,12.60
2022-10-25T04:56:16.476Z,12.60
2022-10-25T04:58:43.034Z,12.60
2022-10-25T05:01:13.185Z,12.60
2022-10-25T05:03:41.373Z,12.50
2022-10-25T05:06:10.413Z,12.50
2022-10-25T05:08:40.067Z,12.50
2022-10-25T05:11:07.965Z,12.50
2022-10-25T05:13:37.170Z,12.40
2022-10-25T05:16:04.447Z,12.50
2022-10-25T05:18:31.981Z,12.40
2022-10-25T05:21:04.643Z,12.40
2022-10-25T05:23:33.268Z,12.30
2022-10-25T05:26:12.217Z,12.30
2022-10-25T05:28:41.616Z,12.30
2022-10-25T05:31:11.809Z,12.30
2022-10-25T05:33:38.524Z,12.20
2022-10-25T05:36:05.449Z,12.20
2022-10-25T05:38:34.384Z,12.10
2022-10-25T05:41:05.314Z,12.20
2022-10-25T05:43:31.996Z,12.20
2022-10-25T05:46:20.533Z,12.20
2022-10-25T05:48:49.210Z,12.20
2022-10-25T05:51:34.618Z,12.20
2022-10-25T05:54:09.247Z,12.20
2022-10-25T05:56:38.029Z,12.20
2022-10-25T05:59:08.719Z,12.40
2022-10-25T06:01:43.761Z,12.50
2022-10-25T06:04:11.518Z,12.50
2022-10-25T06:06:39.739Z,12.50
2022-10-25T06:09:06.786Z,12.30
2022-10-25T06:11:34.361Z,12.40
2022-10-25T06:14:01.459Z,12.40
2022-10-25T06:16:28.674Z,12.40
2022-10-25T06:18:55.269Z,12.40
2022-10-25T06:21:26.927Z,12.40
2022-10-25T06:23:54.470Z,12.40
2022-10-25T06:26:24.141Z,12.40
2022-10-25T06:28:55.958Z,12.50
2022-10-25T06:31:23.123Z,12.50
2022-10-25T06:33:50.156Z,12.60
2022-10-25T06:36:20.026Z,12.60
2022-10-25T06:38:47.599Z,12.70
2022-10-25T06:41:19.927Z,12.80
2022-10-25T06:43:46.899Z,12.80
2022-10-25T06:46:40.597Z,12.80
2022-10-25T06:49:19.288Z,12.80
2022-10-25T06:51:45.808Z,12.80
2022-10-25T06:54:12.352Z,12.80
2022-10-25T06:56:38.993Z,12.80
2022-10-25T06:59:07.147Z,12.90
2022-10-25T07:01:34.291Z,12.90
2022-10-25T07:04:03.107Z,12.90
2022-10-25T07:06:37.780Z,12.90
2022-10-25T07:09:05.570Z,12.90
2022-10-25T07:11:32.992Z,12.90
2022-10-25T07:14:00.607Z,13.00
2022-10-25T07:16:28.330Z,13.00
2022-10-25T07:18:59.898Z,13.00
2022-10-25T07:21:27.103Z,13.00
2022-10-25T07:23:53.669Z,13.00
2022-10-25T07:26:23.491Z,13.00
2022-10-25T07:28:51.812Z,13.10
2022-10-25T07:31:24.419Z,13.30
2022-10-25T07:33:52.544Z,13.40
2022-10-25T07:36:19.838Z,13.60
2022-10-25T07:38:46.864Z,13.70
2022-10-25T07:41:13.589Z,13.90
2022-10-25T07:43:40.240Z,13.80
2022-10-25T07:46:07.106Z,13.80
2022-10-25T07:48:34.298Z,13.90
2022-10-25T07:51:05.995Z,14.00
2022-10-25T07:53:32.588Z,14.00
2022-10-25T07:55:59.246Z,14.00
2022-10-25T07:58:25.852Z,14.00
2022-10-25T08:00:52.380Z,14.00
2022-10-25T08:03:19.082Z,14.00
2022-10-25T08:05:47.398Z,14.00
2022-10-25T08:08:14.582Z,14.00
2022-10-25T08:10:44.752Z,14.00
2022-10-25T08:13:11.648Z,14.00
2022-10-25T08:15:40.686Z,14.10
2022-10-25T08:18:08.207Z,14.10
2022-10-25T08:21:00.628Z,14.10
2022-10-25T08:23:21.643Z,14.10
2022-10-25T08:25:48.164Z,14.10
2022-10-25T08:28:14.744Z,14.20
2022-10-25T08:30:41.829Z,14.20
2022-10-25T08:33:11.622Z,14.20
2022-10-25T08:35:39.040Z,14.30
2022-10-25T08:38:05.961Z,14.40
2022-10-25T08:40:55.579Z,14.50
2022-10-25T08:43:57.476Z,14.50
2022-10-25T08:46:29.269Z,14.60
2022-10-25T08:49:22.491Z,14.70
2022-10-25T08:51:50.801Z,14.70
2022-10-25T08:54:37.556Z,14.80
2022-10-25T08:57:19.084Z,14.80
2022-10-25T08:59:49.593Z,14.90
2022-10-25T09:02:23.974Z,15.00
2022-10-25T09:04:50.730Z,15.10
2022-10-25T09:07:26.404Z,15.20
2022-10-25T09:10:14.240Z,15.20
2022-10-25T09:12:56.008Z,15.20
2022-10-25T09:15:40.520Z,15.30
2022-10-25T09:18:17.872Z,15.30
2022-10-25T09:20:50.698Z,15.30
2022-10-25T09:23:33.088Z,15.40
2022-10-25T09:26:08.389Z,15.50
2022-10-25T09:28:37.906Z,15.50
2022-10-25T09:31:06.008Z,15.60
2022-10-25T09:33:34.527Z,15.60
2022-10-25T09:36:03.642Z,15.70
2022-10-25T09:38:41.647Z,15.70
2022-10-25T09:41:35.730Z,15.80
2022-10-25T09:44:10.475Z,15.80
2022-10-25T09:46:51.714Z,15.80
2022-10-25T09:49:31.292Z,15.80
2022-10-25T09:52:09.737Z,15.90
2022-10-25T09:54:46.001Z,15.90
2022-10-25T09:57:12.664Z,16.00
2022-10-25T09:59:39.253Z,16.10
2022-10-25T10:02:06.364Z,16.10
2022-10-25T10:04:39.439Z,16.10
2022-10-25T10:07:13.418Z,16.10
2022-10-25T10:09:45.695Z,16.10
2022-10-25T10:12:21.988Z,16.20
2022-10-25T10:14:58.608Z,16.20
2022-10-25T10:17:27.046Z,16.20
2022-10-25T10:20:09.756Z,16.20
2022-10-25T10:22:50.431Z,16.30
2022-10-25T10:25:25.307Z,16.30
2022-10-25T10:27:55.663Z,16.40
2022-10-25T10:30:30.275Z,16.40
2022-10-25T10:33:00.649Z,16.50
2022-10-25T10:35:34.189Z,16.40
2022-10-25T10:38:33.330Z,16.40
2022-10-25T10:41:28.569Z,16.40
2022-10-25T10:44:13.597Z,16.50
2022-10-25T10:46:46.216Z,16.60
2022-10-25T10:49:14.604Z,16.70
2022-10-25T10:51:44.988Z,16.80
2022-10-25T10:54:22.192Z,16.80
2022-10-25T10:57:23.337Z,16.90
2022-10-25T10:59:56.064Z,17.10
2022-10-25T11:02:39.970Z,17.40
2022-10-25T11:05:37.159Z,17.40
2022-10-25T11:08:09.626Z,17.40
2022-10-25T11:10:37.092Z,17.50
2022-10-25T11:13:09.448Z,17.40
2022-10-25T11:16:04.047Z,17.40
2022-10-25T11:18:50.060Z,17.30
2022-10-25T11:21:53.764Z,17.30
2022-10-25T11:24:53.458Z,17.20
2022-10-25T11:27:35.824Z,17.30
2022-10-25T11:30:21.030Z,17.30
2022-10-25T11:33:01.486Z,17.40
2022-10-25T11:35:49.452Z,17.40
2022-10-25T11:38:51.145Z,17.30
2022-10-25T11:41:32.832Z,17.40
2022-10-25T11:44:36.517Z,17.40
2022-10-25T11:47:21.273Z,18.00
2022-10-25T11:49:57.744Z,18.50
2022-10-25T11:52:41.383Z,18.10
2022-10-25T11:55:38.177Z,18.20
2022-10-25T11:58:32.166Z,18.00
2022-10-25T12:01:30.633Z,18.00
2022-10-25T12:04:28.592Z,18.40
2022-10-25T12:07:13.903Z,18.60
2022-10-25T12:10:16.608Z,18.40
2022-10-25T12:13:04.127Z,18.40
2022-10-25T12:15:46.783Z,18.30
2022-10-25T12:18:26.997Z,18.20
2022-10-25T12:20:55.378Z,18.20
2022-10-25T12:23:25.907Z,18.30
2022-10-25T12:26:01.799Z,18.40
2022-10-25T12:28:47.844Z,18.30
2022-10-25T12:31:18.636Z,18.20
2022-10-25T12:34:22.948Z,18.00
2022-10-25T12:37:08.013Z,18.10
2022-10-25T12:39:43.671Z,19.20
2022-10-25T12:42:18.502Z,18.80
2022-10-25T12:45:22.596Z,18.70
2022-10-25T12:48:11.223Z,18.40
2022-10-25T12:50:58.152Z,18.10
2022-10-25T12:54:08.710Z,18.00
2022-10-25T12:57:28.300Z,17.90
2022-10-25T13:00:04.182Z,17.90
2022-10-25T13:02:48.029Z,17.80
2022-10-25T13:05:32.984Z,17.80
2022-10-25T13:08:04.044Z,17.80
2022-10-25T13:10:48.696Z,17.90
2022-10-25T13:13:23.756Z,18.00
2022-10-25T13:15:55.344Z,18.10
2022-10-25T13:18:48.487Z,18.20
2022-10-25T13:21:36.713Z,18.60
2022-10-25T13:24:03.801Z,19.10
2022-10-25T13:26:32.716Z,19.50
2022-10-25T13:29:24.315Z,19.60
2022-10-25T13:32:11.651Z,19.30
2022-10-25T13:34:39.250Z,19.00
2022-10-25T13:37:26.782Z,18.80
2022-10-25T13:39:56.992Z,18.60
2022-10-25T13:42:35.927Z,18.50
2022-10-25T13:45:02.440Z,18.60
2022-10-25T13:47:41.441Z,18.90
2022-10-25T13:50:29.539Z,19.20
2022-10-25T13:53:14.511Z,19.40
2022-10-25T13:55:47.507Z,19.60
2022-10-25T13:58:31.626Z,19.30
2022-10-25T14:01:20.725Z,19.20
2022-10-25T14:04:02.150Z,19.00
2022-10-25T14:06:37.304Z,18.90
2022-10-25T14:09:22.803Z,18.70
2022-10-25T14:12:00.817Z,18.60
2022-10-25T14:14:36.218Z,18.50
2022-10-25T14:17:38.353Z,18.50
2022-10-25T14:20:21.203Z,18.40
2022-10-25T14:22:53.296Z,18.40
2022-10-25T14:25:34.825Z,18.30
2022-10-25T14:28:28.840Z,18.30
2022-10-25T14:31:00.086Z,18.20
2022-10-25T14:33:27.855Z,18.20
2022-10-25T14:36:09.078Z,18.30
2022-10-25T14:38:50.783Z,18.20
2022-10-25T14:41:22.303Z,18.10
2022-10-25T14:43:49.049Z,18.10
2022-10-25T14:46:18.230Z,18.10
2022-10-25T14:48:46.925Z,18.20
2022-10-25T14:51:22.012Z,18.30
2022-10-25T14:53:55.627Z,18.20
2022-10-25T14:56:27.524Z,18.20
2022-10-25T14:58:55.236Z,18.10
2022-10-25T15:01:23.089Z,18.10
2022-10-25T15:03:52.968Z,18.00
2022-10-25T15:06:22.849Z,17.90
2022-10-25T15:09:05.046Z,17.90
2022-10-25T15:11:45.723Z,17.80
2022-10-25T15:14:20.207Z,17.70
2022-10-25T15:16:49.776Z,17.50
2022-10-25T15:19:20.373Z,17.40
2022-10-25T15:21:52.549Z,17.40
2022-10-25T15:24:23.565Z,17.30
2022-10-25T15:26:58.401Z,17.10
2022-10-25T15:29:51.376Z,17.00
2022-10-25T15:32:19.430Z,16.90
2022-10-25T15:34:49.215Z,16.80
2022-10-25T15:37:17.917Z,16.70
2022-10-25T15:39:50.506Z,16.70
2022-10-25T15:42:17.904Z,16.70
2022-10-25T15:44:44.677Z,16.70
2022-10-25T15:47:20.612Z,16.70
2022-10-25T15:49:51.947Z,16.60
2022-10-25T15:52:18.704Z,16.50
2022-10-25T15:54:45.471Z,16.40
2022-10-25T15:57:12.171Z,16.30
2022-10-25T15:59:38.904Z,16.30
2022-10-25T16:02:21.945Z,16.20
2022-10-25T16:04:49.108Z,16.00
2022-10-25T16:07:16.395Z,16.00
2022-10-25T16:09:43.579Z,15.90
2022-10-25T16:12:18.638Z,15.90
2022-10-25T16:14:46.216Z,15.80
2022-10-25T16:17:13.691Z,15.70
2022-10-25T16:19:40.429Z,15.50
2022-10-25T16:22:08.141Z,15.50
2022-10-25T16:24:34.710Z,15.40
2022-10-25T16:27:01.380Z,15.30
2022-10-25T16:29:28.116Z,15.20
2022-10-25T16:31:54.831Z,15.20
2022-10-25T16:34:21.540Z,15.10
2022-10-25T16:36:50.287Z,15.10
2022-10-25T16:39:17.506Z,15.10
2022-10-25T16:41:45.776Z,15.00
2022-10-25T16:44:15.491Z,14.90
2022-10-25T16:46:42.173Z,15.00
2022-10-25T16:49:09.371Z,14.90
2022-10-25T16:51:37.177Z,14.80
2022-10-25T16:54:04.540Z,14.70
2022-10-25T16:56:31.241Z,14.70
2022-10-25T16:58:57.909Z,14.70
2022-10-25T17:01:32.277Z,14.70
2022-10-25T17:03:59.703Z,14.70
2022-10-25T17:06:40.650Z,14.70
2022-10-25T17:09:08.289Z,14.70
2022-10-25T17:11:36.004Z,14.70
2022-10-25T17:14:02.632Z,14.70
2022-10-25T17:16:29.226Z,14.60
2022-10-25T17:18:56.384Z,14.60
2022-10-25T17:21:23.537Z,14.60
2022-10-25T17:23:50.088Z,14.50
2022-10-25T17:26:17.853Z,14.50
2022-10-25T17:28:44.866Z,14.50
2022-10-25T17:31:14.068Z,14.50
2022-10-25T17:33:42.090Z,14.40
2022-10-25T17:36:13.545Z,14.40
2022-10-25T17:38:40.456Z,14.50
2022-10-25T17:41:07.494Z,14.50
2022-10-25T17:43:35.974Z,14.40
2022-10-25T17:46:04.589Z,14.40
2022-10-25T17:48:31.597Z,14.30
2022-10-25T17:51:09.678Z,14.40
2022-10-25T17:53:36.678Z,14.30
2022-10-25T17:59:04.380Z,14.20
2022-10-25T18:01:35.153Z,14.20
2022-10-25T18:04:01.887Z,14.20
2022-10-25T18:06:30.831Z,14.10
2022-10-25T18:08:58.972Z,14.00
2022-10-25T18:11:28.129Z,13.90
2022-10-25T18:13:58.076Z,13.80
2022-10-25T18:16:30.477Z,13.80
2022-10-25T18:18:59.568Z,13.80
2022-10-25T18:21:26.746Z,13.70
2022-10-25T18:24:01.475Z,13.80
2022-10-25T18:26:28.997Z,13.80
2022-10-25T18:28:57.546Z,13.80
2022-10-25T18:31:27.133Z,13.70
2022-10-25T18:33:59.181Z,13.70
2022-10-25T18:36:30.305Z,13.60
2022-10-25T18:38:57.227Z,13.60
2022-10-25T18:41:27.174Z,13.60
2022-10-25T18:43:54.911Z,13.60
2022-10-25T18:46:23.155Z,13.50
2022-10-25T18:48:51.547Z,13.50
2022-10-25T18:51:19.740Z,13.50
2022-10-25T18:53:46.503Z,13.50
2022-10-25T18:56:19.587Z,13.30
2022-10-25T18:58:48.973Z,13.20
2022-10-25T19:01:22.715Z,13.30
2022-10-25T19:03:50.020Z,13.10
2022-10-25T19:06:16.768Z,13.10
2022-10-25T19:08:44.281Z,13.00
2022-10-25T19:11:13.296Z,12.90
2022-10-25T19:13:40.790Z,12.90
2022-10-25T19:16:08.556Z,12.90
2022-10-25T19:18:37.178Z,13.00
2022-10-25T19:21:09.525Z,13.00
2022-10-25T19:23:37.486Z,12.90
2022-10-25T19:26:05.947Z,12.90
2022-10-25T19:28:33.368Z,12.80
2022-10-25T19:31:14.270Z,12.80
2022-10-25T19:33:49.348Z,12.80
2022-10-25T19:36:17.774Z,12.70
2022-10-25T19:38:50.844Z,12.60
2022-10-25T19:41:20.465Z,12.60
2022-10-25T19:43:47.414Z,12.60
2022-10-25T19:46:14.494Z,12.60
2022-10-25T19:48:41.746Z,12.60
2022-10-25T19:51:14.209Z,12.60
2022-10-25T19:53:41.385Z,12.60
2022-10-25T19:56:11.775Z,12.60
2022-10-25T19:58:38.715Z,12.60
2022-10-25T20:01:31.210Z,12.60
2022-10-25T20:03:59.525Z,12.50
2022-10-25T20:06:29.895Z,12.40
2022-10-25T20:08:57.804Z,12.50
2022-10-25T20:11:25.852Z,12.50
2022-10-25T20:13:57.023Z,12.50
2022-10-25T20:16:24.901Z,12.40
2022-10-25T20:18:51.907Z,12.40
2022-10-25T20:21:22.883Z,12.30
2022-10-25T20:23:55.072Z,12.10
2022-10-25T20:26:24.923Z,12.10
2022-10-25T20:28:57.318Z,12.10
2022-10-25T20:31:26.058Z,12.20
2022-10-25T20:33:53.392Z,12.20
2022-10-25T20:36:20.897Z,12.10
2022-10-25T20:38:47.735Z,12.10
2022-10-25T20:41:20.041Z,12.20
2022-10-25T20:43:49.387Z,12.20
2022-10-25T20:46:16.616Z,12.10
2022-10-25T20:48:43.665Z,12.10
2022-10-25T20:51:12.483Z,12.10
2022-10-25T20:53:43.965Z,12.20
2022-10-25T20:56:11.773Z,12.10
2022-10-25T20:58:38.613Z,12.20
2022-10-25T21:01:05.543Z,12.20
2022-10-25T21:03:32.722Z,12.10
2022-10-25T21:06:03.235Z,12.00
2022-10-25T21:08:30.728Z,12.00
2022-10-25T21:11:02.449Z,12.00
2022-10-25T21:13:34.193Z,12.00
2022-10-25T21:16:15.418Z,12.00
2022-10-25T21:18:43.592Z,11.90
2022-10-25T21:21:17.899Z,11.90
2022-10-25T21:23:45.911Z,11.90
2022-10-25T21:26:12.760Z,11.90
2022-10-25T21:28:41.208Z,11.90
2022-10-25T21:31:10.714Z,11.90
2022-10-25T21:33:38.224Z,12.00
2022-10-25T21:36:08.267Z,12.00
2022-10-25T21:38:35.577Z,12.00
2022-10-25T21:41:07.177Z,12.00
2022-10-25T21:43:34.004Z,12.00
2022-10-25T21:46:03.456Z,12.00
2022-10-25T21:48:30.125Z,12.00
2022-10-25T21:50:58.819Z,12.10
2022-10-25T21:53:25.384Z,12.00
2022-10-25T21:56:01.837Z,12.00
2022-10-25T21:58:28.451Z,12.00
2022-10-25T22:00:55.215Z,12.00
2022-10-25T22:03:23.133Z,11.90
2022-10-25T22:05:52.144Z,11.90
2022-10-25T22:08:21.732Z,12.00
2022-10-25T22:13:30.820Z,11.90
2022-10-25T22:16:06.640Z,12.00
2022-10-25T22:18:33.837Z,11.90
2022-10-25T22:21:04.724Z,11.90
2022-10-25T22:23:31.867Z,12.00
2022-10-25T22:26:05.245Z,11.90
2022-10-25T22:28:34.340Z,11.80
2022-10-25T22:31:08.744Z,11.80
2022-10-25T22:33:36.118Z,11.80
2022-10-25T22:36:10.462Z,11.90
2022-10-25T22:38:37.304Z,11.80
2022-10-25T22:41:12.561Z,11.90
2022-10-25T22:43:39.474Z,11.80
2022-10-25T22:46:08.809Z,11.80
2022-10-25T22:48:38.167Z,11.90
2022-10-25T22:51:05.679Z,11.90
2022-10-25T22:53:33.777Z,11.90
2022-10-25T22:56:02.776Z,11.90
2022-10-25T22:58:32.474Z,11.80
2022-10-25T23:01:12.397Z,11.70
2022-10-25T23:03:44.071Z,11.70
2022-10-25T23:06:19.951Z,11.80
2022-10-25T23:08:46.543Z,11.70
2022-10-25T23:11:15.654Z,11.70
2022-10-25T23:13:42.550Z,11.70
2022-10-25T23:16:10.167Z,11.70
2022-10-25T23:18:37.459Z,11.70
2022-10-25T23:21:06.928Z,11.80
2022-10-25T23:23:34.841Z,11.80
2022-10-25T23:26:02.306Z,11.80
2022-10-25T23:28:34.451Z,11.90
2022-10-25T23:31:05.557Z,11.80
2022-10-25T23:33:32.204Z,11.80
2022-10-25T23:36:09.346Z,11.80
2022-10-25T23:38:36.856Z,11.80
2022-10-25T23:41:04.553Z,11.80
2022-10-25T23:43:31.411Z,11.80
2022-10-25T23:45:58.393Z,11.80
2022-10-25T23:48:25.163Z,11.80
2022-10-25T23:53:31.663Z,11.80
2022-10-25T23:55:58.766Z,11.70
2022-10-25T23:58:25.804Z,11.70
